Time;durP1;ratioP1;P1;durP2;ratioP2;P2;SDS_P1;SDS_P2;PMS_P1;PMS_P2;Temp;Humidity;BMP_temperature;BMP_pressure;BME280_temperature;BME280_humidity;BME280_pressure;Samples;Min_cycle;Max_cycle;Signal;HPM_P1;HPM_P2
2021/12/02 00:01:26;;;;;;;10.87;1.97;;;2.80;99.90;;;;;;4939233;29;20050;-93
2021/12/02 00:03:54;;;;;;;10.87;2.63;;;2.80;99.90;;;;;;4939088;29;20047;-92
2021/12/02 00:06:20;;;;;;;13.23;2.50;;;2.80;99.90;;;;;;4938975;29;20043;-91
2021/12/02 00:08:48;;;;;;;11.10;1.77;;;2.80;99.90;;;;;;4938632;29;20047;-92
2021/12/02 00:11:14;;;;;;;10.10;1.73;;;2.80;99.90;;;;;;4938933;29;20075;-93
2021/12/02 00:13:51;;;;;;;11.67;4.40;;;2.80;99.90;;;;;;4938678;29;20068;-93
2021/12/02 00:16:24;;;;;;;6.07;1.60;;;2.90;99.90;;;;;;4939053;29;20062;-90
2021/12/02 00:21:20;;;;;;;9.97;3.20;;;2.80;99.90;;;;;;4970416;28;20378;-92
2021/12/02 00:24:08;;;;;;;10.33;2.57;;;2.80;99.90;;;;;;4938810;29;20078;-91
2021/12/02 00:26:36;;;;;;;12.23;3.73;;;2.80;99.90;;;;;;4939060;29;20051;-92
2021/12/02 00:29:05;;;;;;;11.37;1.73;;;2.80;99.90;;;;;;4938477;29;20134;-91
2021/12/02 00:31:32;;;;;;;11.67;3.40;;;2.80;99.90;;;;;;4939141;29;20032;-93
2021/12/02 00:34:02;;;;;;;11.27;1.87;;;2.80;99.90;;;;;;4938122;29;20063;-91
2021/12/02 00:36:31;;;;;;;6.00;1.70;;;2.70;99.90;;;;;;4938664;29;20039;-92
2021/12/02 00:38:57;;;;;;;9.10;1.83;;;2.70;99.90;;;;;;4937791;29;20158;-91
2021/12/02 00:41:26;;;;;;;9.70;2.10;;;3.10;99.90;;;;;;4938469;29;20039;-90
2021/12/02 00:43:54;;;;;;;8.70;2.47;;;2.70;99.90;;;;;;4939079;29;20138;-92
2021/12/02 00:46:22;;;;;;;9.70;2.20;;;3.70;99.90;;;;;;4938825;29;20429;-91
2021/12/02 00:48:48;;;;;;;10.63;2.23;;;3.30;99.90;;;;;;4938431;29;20066;-91
2021/12/02 00:51:16;;;;;;;9.77;1.90;;;2.70;99.90;;;;;;4939177;29;20047;-93
2021/12/02 00:53:45;;;;;;;8.77;2.20;;;2.70;99.90;;;;;;4937838;29;20460;-92
2021/12/02 00:56:16;;;;;;;14.80;2.73;;;3.30;99.90;;;;;;4937634;29;20135;-92
2021/12/02 00:58:47;;;;;;;11.40;2.33;;;2.80;99.90;;;;;;4938842;29;20082;-92
2021/12/02 01:01:15;;;;;;;9.83;2.00;;;2.80;99.90;;;;;;4938267;29;20094;-91
2021/12/02 01:03:42;;;;;;;11.33;1.83;;;2.70;99.90;;;;;;4937907;29;20392;-92
2021/12/02 01:06:08;;;;;;;11.80;2.10;;;2.80;99.90;;;;;;4938976;29;20043;-92
2021/12/02 01:08:36;;;;;;;12.67;2.07;;;2.70;99.90;;;;;;4938534;29;20040;-91
2021/12/02 01:11:04;;;;;;;10.40;2.33;;;3.40;99.90;;;;;;4946818;28;20062;-92
2021/12/02 01:13:30;;;;;;;12.00;2.33;;;2.70;99.90;;;;;;4961259;29;20094;-93
2021/12/02 01:15:55;;;;;;;14.93;2.57;;;2.60;99.90;;;;;;4942339;29;20042;-92
2021/12/02 01:18:22;;;;;;;8.73;1.83;;;2.50;99.90;;;;;;4942035;29;20051;-93
2021/12/02 01:20:50;;;;;;;7.60;1.63;;;2.50;99.90;;;;;;4956481;28;20087;-93
2021/12/02 01:23:17;;;;;;;8.60;2.10;;;2.40;99.90;;;;;;4956925;29;20070;-91
2021/12/02 01:25:49;;;;;;;9.27;1.90;;;2.40;99.90;;;;;;4941602;29;20415;-92
2021/12/02 01:28:16;;;;;;;11.00;2.70;;;2.30;99.90;;;;;;4941576;29;20043;-91
2021/12/02 01:30:44;;;;;;;9.33;2.07;;;2.40;99.90;;;;;;4940817;29;20046;-92
2021/12/02 01:33:12;;;;;;;13.13;2.53;;;2.40;99.90;;;;;;4942069;29;20051;-92
2021/12/02 01:35:38;;;;;;;7.97;2.10;;;2.50;99.90;;;;;;4942356;29;20047;-92
2021/12/02 01:38:04;;;;;;;9.20;2.20;;;2.40;99.90;;;;;;4945978;29;20043;-92
2021/12/02 01:40:29;;;;;;;6.33;1.90;;;2.40;99.90;;;;;;4965869;28;20071;-92
2021/12/02 01:42:57;;;;;;;9.37;2.23;;;2.40;99.90;;;;;;4955341;29;20398;-93
2021/12/02 01:45:28;;;;;;;12.43;2.07;;;2.40;99.90;;;;;;4947029;29;20046;-92
2021/12/02 01:47:56;;;;;;;10.10;2.17;;;2.40;99.90;;;;;;4941059;29;20046;-92
2021/12/02 01:50:24;;;;;;;9.47;2.37;;;2.30;99.90;;;;;;4941689;29;20420;-93
2021/12/02 01:53:00;;;;;;;11.27;2.53;;;2.70;99.90;;;;;;4941503;29;20062;-93
2021/12/02 01:55:28;;;;;;;9.37;2.43;;;2.30;99.90;;;;;;4942115;29;20487;-92
2021/12/02 01:58:04;;;;;;;8.03;2.20;;;2.70;99.90;;;;;;4941547;29;20074;-92
2021/12/02 02:00:33;;;;;;;9.73;1.90;;;2.30;99.90;;;;;;4942216;29;20435;-91
2021/12/02 02:03:01;;;;;;;7.87;1.70;;;2.20;99.90;;;;;;4941442;29;20415;-93
2021/12/02 02:05:27;;;;;;;7.03;1.40;;;2.30;99.90;;;;;;4941200;29;20047;-91
2021/12/02 02:08:15;;;;;;;7.33;2.13;;;2.50;99.90;;;;;;4940542;29;20139;-93
2021/12/02 02:10:42;;;;;;;11.03;1.90;;;2.60;99.90;;;;;;4940913;29;20102;-90
2021/12/02 02:13:10;;;;;;;5.83;1.60;;;2.40;99.90;;;;;;4940721;29;20067;-93
2021/12/02 02:15:38;;;;;;;7.93;2.23;;;2.40;99.90;;;;;;4941617;29;20043;-94
2021/12/02 02:18:13;;;;;;;6.53;1.60;;;2.40;99.90;;;;;;4940903;29;20098;-93
2021/12/02 02:20:51;;;;;;;6.50;1.53;;;2.60;99.90;;;;;;4940943;29;20133;-92
2021/12/02 02:23:17;;;;;;;7.30;1.97;;;2.60;99.90;;;;;;4941276;29;20117;-92
2021/12/02 02:25:44;;;;;;;8.00;1.53;;;2.70;99.90;;;;;;4940204;29;20047;-89
2021/12/02 02:28:10;;;;;;;10.10;1.50;;;2.70;99.90;;;;;;4939306;29;20130;-90
2021/12/02 02:30:36;;;;;;;5.43;1.37;;;3.40;99.90;;;;;;4940411;29;20078;-91
2021/12/02 02:33:01;;;;;;;6.77;1.50;;;2.70;99.90;;;;;;4940640;29;20055;-89
2021/12/02 02:35:27;;;;;;;5.60;1.10;;;2.70;99.90;;;;;;4939965;29;20122;-92
2021/12/02 02:37:53;;;;;;;4.97;1.20;;;2.60;99.90;;;;;;4940072;29;20047;-92
2021/12/02 02:40:19;;;;;;;7.97;1.57;;;3.30;99.90;;;;;;4940094;29;20047;-92
2021/12/02 02:42:49;;;;;;;6.60;1.20;;;2.50;99.90;;;;;;4971785;28;20102;-89
2021/12/02 02:45:16;;;;;;;7.07;1.30;;;2.70;99.90;;;;;;4939490;29;20050;-89
2021/12/02 02:47:42;;;;;;;6.47;1.47;;;2.50;99.90;;;;;;4939093;29;20090;-91
2021/12/02 02:50:13;;;;;;;5.83;1.50;;;2.30;99.90;;;;;;4940199;29;20047;-93
2021/12/02 02:52:39;;;;;;;5.37;1.60;;;2.30;99.90;;;;;;4940186;29;20102;-90
2021/12/02 02:55:05;;;;;;;7.60;1.73;;;2.30;99.90;;;;;;4939757;29;20045;-93
2021/12/02 02:57:39;;;;;;;6.77;1.77;;;2.20;99.90;;;;;;4940686;29;20138;-93
2021/12/02 03:00:10;;;;;;;;;;;2.10;99.90;;;;;;4940608;29;20051;-92
2021/12/02 03:05:19;;;;;;;7.93;1.50;;;2.00;99.90;;;;;;4939228;29;20198;-93
2021/12/02 03:07:57;;;;;;;5.60;1.50;;;2.10;99.90;;;;;;4957497;28;20032;-94
2021/12/02 03:13:09;;;;;;;4.73;1.40;;;2.00;99.90;;;;;;4939866;29;20412;-92
2021/12/02 03:18:18;;;;;;;8.10;1.80;;;2.00;99.90;;;;;;4953770;29;20055;-93
2021/12/02 03:20:44;;;;;;;7.03;1.80;;;2.00;99.90;;;;;;4940672;29;20098;-94
2021/12/02 03:23:09;;;;;;;10.77;2.10;;;2.90;99.90;;;;;;4939910;29;20146;-92
2021/12/02 03:25:35;;;;;;;8.80;1.90;;;2.00;99.90;;;;;;4939923;29;20090;-92
2021/12/02 03:28:01;;;;;;;6.07;1.80;;;2.90;99.90;;;;;;4939369;29;20566;-90
2021/12/02 03:30:26;;;;;;;7.43;1.63;;;1.90;99.90;;;;;;4940127;29;20102;-93
2021/12/02 03:32:52;;;;;;;7.73;1.70;;;1.80;99.90;;;;;;4939113;29;20082;-92
2021/12/02 03:35:18;;;;;;;6.97;1.73;;;1.80;99.90;;;;;;4939524;29;20043;-94
2021/12/02 03:37:44;;;;;;;8.40;1.90;;;1.70;99.90;;;;;;4939451;29;20411;-93
2021/12/02 03:40:12;;;;;;;6.23;1.70;;;1.70;99.90;;;;;;4940052;29;20134;-93
2021/12/02 03:42:44;;;;;;;7.13;1.60;;;2.70;99.90;;;;;;4940033;29;20134;-93
2021/12/02 03:45:10;;;;;;;5.60;1.60;;;1.60;99.90;;;;;;4939561;29;20448;-93
2021/12/02 03:47:36;;;;;;;6.53;1.77;;;1.60;99.90;;;;;;4939757;29;20051;-93
2021/12/02 03:50:02;;;;;;;8.67;1.60;;;1.60;99.90;;;;;;4939964;29;20081;-94
2021/12/02 03:52:27;;;;;;;5.07;1.37;;;1.70;99.90;;;;;;4939246;29;20051;-90
2021/12/02 03:54:53;;;;;;;8.17;1.60;;;1.50;99.90;;;;;;4956237;29;20082;-93
2021/12/02 03:57:18;;;;;;;6.23;1.40;;;1.50;99.90;;;;;;4939350;29;20031;-93
2021/12/02 03:59:44;;;;;;;5.80;1.80;;;1.50;99.90;;;;;;4939622;29;20039;-93
2021/12/02 04:02:10;;;;;;;7.30;1.90;;;1.50;99.90;;;;;;4939803;29;20047;-93
2021/12/02 04:04:35;;;;;;;7.37;2.27;;;1.50;99.90;;;;;;4939584;29;20408;-91
2021/12/02 04:07:01;;;;;;;6.50;2.33;;;1.40;99.90;;;;;;4939829;29;20094;-94
2021/12/02 04:09:34;;;;;;;5.47;1.70;;;1.40;99.90;;;;;;4939784;29;20039;-93
2021/12/02 04:12:14;;;;;;;7.70;1.70;;;1.40;99.90;;;;;;4939436;29;20051;-93
2021/12/02 04:14:52;;;;;;;4.87;1.20;;;1.40;99.90;;;;;;4939795;29;20054;-93
2021/12/02 04:17:19;;;;;;;2.07;0.90;;;1.30;99.90;;;;;;4939854;29;20065;-93
2021/12/02 04:19:45;;;;;;;2.73;0.80;;;1.40;99.90;;;;;;4938974;29;20054;-93
2021/12/02 04:22:11;;;;;;;4.20;1.03;;;1.30;99.90;;;;;;4938889;29;20059;-93
2021/12/02 04:24:36;;;;;;;2.53;1.17;;;1.30;99.90;;;;;;4939412;29;20404;-93
2021/12/02 04:27:02;;;;;;;4.87;1.30;;;1.30;99.90;;;;;;4939900;29;20043;-93
2021/12/02 04:29:28;;;;;;;3.77;1.10;;;1.20;99.90;;;;;;4962568;28;20027;-94
2021/12/02 04:31:53;;;;;;;5.17;1.20;;;1.20;99.90;;;;;;4955354;29;20059;-93
2021/12/02 04:34:19;;;;;;;4.20;1.30;;;1.10;99.90;;;;;;4944718;29;20047;-93
2021/12/02 04:36:45;;;;;;;3.33;1.20;;;1.10;99.90;;;;;;4940191;29;20134;-94
2021/12/02 04:39:11;;;;;;;3.83;1.10;;;1.10;99.90;;;;;;4939789;29;20476;-92
2021/12/02 04:41:36;;;;;;;6.07;1.60;;;1.00;99.90;;;;;;4939297;29;20070;-92
2021/12/02 04:44:02;;;;;;;9.33;4.40;;;1.00;99.90;;;;;;4939094;29;20184;-93
2021/12/02 04:46:28;;;;;;;14.33;7.07;;;1.00;99.90;;;;;;4940244;29;20500;-94
2021/12/02 04:48:54;;;;;;;11.07;2.90;;;1.00;99.90;;;;;;4942907;29;20047;-92
2021/12/02 04:51:20;;;;;;;14.23;4.10;;;1.10;99.90;;;;;;4942267;29;20097;-92
2021/12/02 04:53:46;;;;;;;12.17;2.50;;;1.10;99.90;;;;;;4942538;29;20039;-92
2021/12/02 04:56:13;;;;;;;9.93;3.83;;;1.00;99.90;;;;;;4941733;29;20047;-94
2021/12/02 04:58:38;;;;;;;10.80;5.07;;;1.00;99.90;;;;;;4942666;29;20547;-93
2021/12/02 05:01:04;;;;;;;7.70;2.83;;;1.00;99.90;;;;;;4950453;29;20098;-93
2021/12/02 05:03:29;;;;;;;5.97;1.40;;;1.00;99.90;;;;;;4966708;28;20042;-92
2021/12/02 05:05:55;;;;;;;4.33;1.27;;;1.00;99.90;;;;;;4960186;28;20089;-90
2021/12/02 05:08:20;;;;;;;7.43;1.73;;;1.10;99.90;;;;;;4961970;28;20042;-92
2021/12/02 05:10:46;;;;;;;10.97;3.83;;;1.10;99.90;;;;;;4973846;28;20023;-93
2021/12/02 05:13:12;;;;;;;11.70;7.03;;;1.10;99.90;;;;;;4973969;28;20430;-93
2021/12/02 05:15:37;;;;;;;10.60;6.47;;;1.10;99.90;;;;;;4961461;28;20070;-92
2021/12/02 05:18:03;;;;;;;12.20;5.67;;;1.10;99.90;;;;;;4977059;28;20046;-92
2021/12/02 05:20:29;;;;;;;13.67;4.80;;;1.10;99.90;;;;;;4961330;28;20046;-92
2021/12/02 05:22:55;;;;;;;11.83;4.77;;;1.10;99.90;;;;;;4959859;28;20050;-92
2021/12/02 05:25:20;;;;;;;13.53;5.37;;;1.10;99.90;;;;;;4961781;28;20050;-93
2021/12/02 05:27:46;;;;;;;11.87;5.23;;;1.10;99.90;;;;;;4961455;28;20439;-94
2021/12/02 05:30:12;;;;;;;12.17;4.17;;;1.10;99.90;;;;;;4961582;28;20488;-94
2021/12/02 05:32:38;;;;;;;8.93;3.23;;;1.10;99.90;;;;;;4961365;28;20047;-92
2021/12/02 05:35:04;;;;;;;13.47;5.87;;;1.10;99.90;;;;;;4961009;28;20402;-93
2021/12/02 05:37:30;;;;;;;9.07;2.60;;;1.10;99.90;;;;;;4960514;28;20039;-91
2021/12/02 05:39:56;;;;;;;13.33;6.00;;;1.90;99.90;;;;;;4961405;28;20403;-92
2021/12/02 05:42:21;;;;;;;14.33;6.00;;;1.60;99.90;;;;;;4961356;28;20487;-93
2021/12/02 05:44:47;;;;;;;8.97;2.80;;;1.00;99.90;;;;;;4960303;28;20050;-93
2021/12/02 05:47:13;;;;;;;9.63;3.00;;;1.00;99.90;;;;;;4961287;28;20054;-92
2021/12/02 05:49:39;;;;;;;9.73;2.40;;;1.00;99.90;;;;;;4960378;28;20094;-92
2021/12/02 05:52:05;;;;;;;6.57;1.67;;;1.00;99.90;;;;;;4960540;28;20128;-93
2021/12/02 05:54:30;;;;;;;8.17;1.90;;;0.90;99.90;;;;;;4963063;28;20046;-93
2021/12/02 05:56:56;;;;;;;7.23;1.80;;;1.20;99.90;;;;;;4977258;28;20043;-94
2021/12/02 05:59:22;;;;;;;6.57;2.20;;;0.90;99.90;;;;;;4960290;28;20039;-92
2021/12/02 06:01:48;;;;;;;9.37;3.57;;;0.90;99.90;;;;;;4960634;28;20049;-93
2021/12/02 06:04:14;;;;;;;10.87;3.87;;;1.00;99.90;;;;;;4960413;28;20047;-94
2021/12/02 06:06:41;;;;;;;9.33;3.20;;;1.00;99.90;;;;;;4962326;28;20039;-93
2021/12/02 06:09:07;;;;;;;6.43;1.87;;;1.60;99.90;;;;;;4961373;28;20053;-91
2021/12/02 06:11:33;;;;;;;7.47;1.77;;;0.90;99.90;;;;;;4962021;28;20047;-89
2021/12/02 06:13:58;;;;;;;11.30;3.97;;;0.90;99.90;;;;;;4961726;28;20054;-94
2021/12/02 06:16:24;;;;;;;15.07;6.63;;;0.90;99.90;;;;;;4962682;28;20162;-92
2021/12/02 06:18:50;;;;;;;6.00;2.10;;;0.90;99.90;;;;;;4959949;28;20090;-95
2021/12/02 06:21:15;;;;;;;7.00;1.60;;;0.90;99.90;;;;;;4961553;28;20039;-94
2021/12/02 06:23:41;;;;;;;6.77;1.90;;;0.90;99.90;;;;;;4959996;28;20054;-93
2021/12/02 06:26:08;;;;;;;15.53;4.73;;;0.90;99.90;;;;;;4960340;28;20047;-94
2021/12/02 06:28:34;;;;;;;28.13;13.40;;;0.90;99.90;;;;;;4960236;28;20141;-94
2021/12/02 06:31:03;;;;;;;7.90;2.53;;;0.80;99.90;;;;;;4959765;28;20495;-92
2021/12/02 06:33:32;;;;;;;6.60;1.63;;;0.80;99.90;;;;;;4959006;28;20051;-92
2021/12/02 06:35:58;;;;;;;9.07;2.93;;;0.80;99.90;;;;;;4960759;28;20510;-94
2021/12/02 06:38:24;;;;;;;7.63;2.20;;;0.80;99.90;;;;;;4961135;28;20047;-94
2021/12/02 06:40:50;;;;;;;14.00;3.70;;;0.80;99.90;;;;;;4959794;28;20043;-93
2021/12/02 06:43:16;;;;;;;24.40;9.87;;;0.80;99.90;;;;;;4960439;28;20051;-92
2021/12/02 06:45:45;;;;;;;37.07;16.27;;;0.80;99.90;;;;;;4959524;28;20050;-91
2021/12/02 06:48:10;;;;;;;37.67;15.87;;;0.90;99.90;;;;;;4959590;28;20047;-91
2021/12/02 06:50:37;;;;;;;4.77;1.67;;;0.90;99.90;;;;;;4958865;28;20423;-86
2021/12/02 06:53:05;;;;;;;7.23;2.00;;;0.90;99.90;;;;;;4938252;29;20163;-90
2021/12/02 06:55:31;;;;;;;6.37;1.80;;;0.90;99.90;;;;;;4959318;28;20043;-90
2021/12/02 06:57:57;;;;;;;35.03;14.60;;;1.00;99.90;;;;;;4959577;29;20036;-89
2021/12/02 07:00:23;;;;;;;29.97;11.73;;;0.80;99.90;;;;;;4981620;23;20059;-88
2021/12/02 07:02:56;;;;;;;16.53;6.43;;;1.00;99.90;;;;;;4958216;28;20043;-89
2021/12/02 07:05:25;;;;;;;15.00;5.03;;;1.10;99.90;;;;;;4964309;28;20111;-88
2021/12/02 07:07:51;;;;;;;12.37;3.80;;;0.90;99.90;;;;;;4969756;28;20062;-90
2021/12/02 07:10:21;;;;;;;9.77;2.83;;;0.90;99.90;;;;;;4959107;28;20050;-90
2021/12/02 07:12:50;;;;;;;19.27;7.17;;;1.00;99.90;;;;;;4959388;28;20451;-85
2021/12/02 07:15:29;;;;;;;44.10;19.40;;;1.00;99.90;;;;;;4957753;28;20065;-83
2021/12/02 07:17:57;;;;;;;23.37;10.77;;;1.20;99.90;;;;;;4958123;28;20050;-83
2021/12/02 07:20:35;;;;;;;24.73;12.40;;;1.20;99.90;;;;;;4975315;28;20054;-83
2021/12/02 07:23:02;;;;;;;6.57;2.00;;;0.50;99.90;;;;;;4973563;28;20073;-84
2021/12/02 07:25:40;;;;;;;8.90;2.10;;;1.20;99.90;;;;;;4974479;28;20049;-83
2021/12/02 07:28:08;;;;;;;10.33;3.50;;;2.70;99.90;;;;;;4957332;28;20070;-84
2021/12/02 07:31:10;;;;;;;8.70;2.43;;;1.30;99.90;;;;;;4956471;28;20108;-84
2021/12/02 07:33:38;;;;;;;10.10;3.87;;;1.20;99.90;;;;;;4957871;28;20051;-84
2021/12/02 07:36:05;;;;;;;8.00;2.43;;;1.30;99.90;;;;;;4956409;28;20384;-83
2021/12/02 07:38:30;;;;;;;12.07;4.77;;;1.20;99.90;;;;;;4956237;28;20063;-83
2021/12/02 07:41:03;;;;;;;9.50;3.60;;;1.30;99.90;;;;;;4957029;28;20047;-83
2021/12/02 07:43:39;;;;;;;16.63;8.53;;;1.30;99.90;;;;;;4956243;28;20495;-82
2021/12/02 07:46:05;;;;;;;9.90;2.47;;;1.30;99.90;;;;;;4988775;28;20039;-82
2021/12/02 07:48:31;;;;;;;11.40;2.57;;;1.30;99.90;;;;;;4956711;28;20542;-83
2021/12/02 07:51:12;;;;;;;7.43;2.13;;;2.60;99.90;;;;;;4956062;28;20043;-83
2021/12/02 07:53:42;;;;;;;6.57;2.07;;;1.10;99.90;;;;;;4955969;28;20488;-82
2021/12/02 07:56:16;;;;;;;10.07;3.70;;;1.90;99.90;;;;;;4956862;28;20553;-83
2021/12/02 07:58:45;;;;;;;8.85;3.45;;;1.20;99.90;;;;;;4955402;28;20054;-83
2021/12/02 08:01:12;;;;;;;8.97;2.63;;;1.40;99.90;;;;;;4956779;28;20503;-83
2021/12/02 08:03:43;;;;;;;5.90;1.70;;;1.40;99.90;;;;;;4988770;28;20042;-82
2021/12/02 08:06:11;;;;;;;9.03;3.80;;;1.40;99.90;;;;;;4955451;28;20088;-84
2021/12/02 08:08:37;;;;;;;6.50;1.67;;;1.40;99.90;;;;;;4956528;28;20043;-84
2021/12/02 08:11:14;;;;;;;22.27;14.43;;;2.10;99.90;;;;;;4955405;28;20054;-83
2021/12/02 08:13:58;;;;;;;7.27;1.83;;;3.00;99.90;;;;;;4956544;28;20125;-84
2021/12/02 08:16:24;;;;;;;15.30;11.05;;;1.30;99.90;;;;;;4956999;28;20411;-84
2021/12/02 08:18:52;;;;;;;10.30;4.43;;;1.20;99.90;;;;;;4955806;28;20097;-84
2021/12/02 08:21:18;;;;;;;7.50;2.13;;;1.20;99.90;;;;;;4958494;28;20043;-84
2021/12/02 08:23:53;;;;;;;10.47;3.47;;;1.30;99.90;;;;;;4961850;28;20515;-84
2021/12/02 08:26:19;;;;;;;13.33;8.57;;;2.50;99.90;;;;;;4961803;28;20073;-83
2021/12/02 08:28:53;;;;;;;9.20;3.57;;;2.70;99.90;;;;;;4962384;28;20496;-84
2021/12/02 08:31:19;;;;;;;12.53;7.17;;;1.20;99.90;;;;;;4962821;28;20077;-81
2021/12/02 08:33:48;;;;;;;9.50;3.00;;;1.40;99.90;;;;;;4961157;28;20098;-81
2021/12/02 08:36:27;;;;;;;12.87;5.33;;;1.30;99.90;;;;;;4961310;28;20372;-81
2021/12/02 08:39:07;;;;;;;8.70;2.70;;;1.40;99.90;;;;;;4962177;28;20086;-82
2021/12/02 08:41:32;;;;;;;7.73;2.53;;;1.20;99.90;;;;;;4994780;28;20054;-83
2021/12/02 08:43:58;;;;;;;9.40;3.33;;;1.50;99.90;;;;;;4962285;28;20112;-82
2021/12/02 08:46:40;;;;;;;8.00;2.43;;;1.50;99.90;;;;;;4961993;28;20093;-83
2021/12/02 08:49:06;;;;;;;8.13;3.37;;;1.40;99.90;;;;;;4962503;28;20057;-83
2021/12/02 08:51:32;;;;;;;8.43;2.43;;;1.50;99.90;;;;;;4966810;28;20047;-81
2021/12/02 08:53:57;;;;;;;7.20;2.70;;;1.60;99.90;;;;;;4961771;28;20042;-83
2021/12/02 08:56:23;;;;;;;7.60;2.40;;;1.70;99.90;;;;;;4962783;28;20054;-83
2021/12/02 08:58:52;;;;;;;7.73;2.30;;;1.70;99.90;;;;;;4962028;28;20372;-81
2021/12/02 09:01:28;;;;;;;9.57;2.67;;;1.60;99.90;;;;;;4982587;28;20050;-82
2021/12/02 09:03:57;;;;;;;7.63;2.27;;;1.70;99.90;;;;;;4962421;28;20657;-82
2021/12/02 09:06:23;;;;;;;7.67;2.40;;;2.80;99.90;;;;;;4962698;28;20050;-82
2021/12/02 09:08:51;;;;;;;9.73;2.20;;;1.80;99.90;;;;;;4961874;28;20047;-85
2021/12/02 09:11:17;;;;;;;7.77;2.27;;;1.80;99.90;;;;;;4962500;28;20050;-84
2021/12/02 09:13:49;;;;;;;7.80;2.33;;;1.80;99.90;;;;;;4979788;28;20400;-85
2021/12/02 09:16:14;;;;;;;7.33;2.47;;;1.70;99.90;;;;;;4961725;28;20522;-85
2021/12/02 09:18:40;;;;;;;7.87;2.50;;;1.80;99.90;;;;;;4962370;28;20059;-84
2021/12/02 09:21:06;;;;;;;7.53;2.40;;;2.40;99.90;;;;;;4979911;28;20484;-84
2021/12/02 09:23:33;;;;;;;7.20;2.23;;;1.80;99.90;;;;;;4961936;28;20054;-85
2021/12/02 09:25:58;;;;;;;8.10;2.40;;;1.80;99.90;;;;;;4979538;28;20046;-84
2021/12/02 09:28:25;;;;;;;7.80;2.50;;;1.80;99.90;;;;;;4961931;28;20061;-84
2021/12/02 09:30:51;;;;;;;8.73;2.40;;;1.80;99.90;;;;;;4961463;28;20427;-87
2021/12/02 09:33:30;;;;;;;7.73;2.23;;;1.90;99.90;;;;;;4976482;28;20043;-85
2021/12/02 09:35:56;;;;;;;7.33;2.40;;;1.70;99.90;;;;;;4956912;28;20125;-84
2021/12/02 09:38:37;;;;;;;7.77;2.30;;;1.70;99.90;;;;;;4975465;28;20325;-84
2021/12/02 09:41:03;;;;;;;8.40;2.53;;;2.30;99.90;;;;;;4957987;28;20077;-85
2021/12/02 09:43:35;;;;;;;8.63;2.60;;;1.60;99.90;;;;;;4958091;28;20399;-86
2021/12/02 09:46:02;;;;;;;7.40;2.50;;;1.70;99.90;;;;;;4958012;28;20047;-84
2021/12/02 09:48:47;;;;;;;7.60;2.50;;;2.60;99.90;;;;;;4958630;28;20074;-85
2021/12/02 09:51:20;;;;;;;6.90;2.40;;;1.80;99.90;;;;;;4989283;28;20050;-85
2021/12/02 09:54:07;;;;;;;8.00;2.57;;;2.00;99.90;;;;;;4953106;28;20051;-86
2021/12/02 09:56:45;;;;;;;9.27;2.37;;;2.20;99.90;;;;;;4957720;28;20038;-85
2021/12/02 09:59:31;;;;;;;8.40;2.30;;;1.90;99.90;;;;;;4956896;28;20074;-85
2021/12/02 10:02:08;;;;;;;9.03;2.80;;;2.00;99.90;;;;;;4957427;28;20055;-85
2021/12/02 10:04:50;;;;;;;7.47;2.33;;;2.10;99.90;;;;;;4956816;28;20364;-86
2021/12/02 10:07:42;;;;;;;7.20;2.27;;;3.50;99.90;;;;;;4957455;28;20419;-85
2021/12/02 10:10:29;;;;;;;5.73;1.97;;;2.40;99.90;;;;;;4955922;28;20046;-85
2021/12/02 10:13:24;;;;;;;8.77;2.30;;;2.50;99.90;;;;;;4957753;28;20046;-85
2021/12/02 10:16:05;;;;;;;6.77;2.20;;;2.60;99.90;;;;;;4956290;28;20483;-85
2021/12/02 10:18:41;;;;;;;7.03;2.10;;;2.70;99.90;;;;;;4955896;28;20054;-84
2021/12/02 10:21:25;;;;;;;9.30;3.13;;;2.70;99.90;;;;;;4958359;28;20050;-86
2021/12/02 10:23:53;;;;;;;32.85;17.25;;;2.80;99.90;;;;;;4958200;28;20055;-86
2021/12/02 10:26:20;;;;;;;9.67;2.70;;;2.80;99.90;;;;;;4957404;28;20058;-85
2021/12/02 10:28:52;;;;;;;20.07;9.97;;;2.80;99.90;;;;;;4957866;28;20047;-85
2021/12/02 10:31:25;;;;;;;7.07;2.30;;;3.00;99.90;;;;;;4958440;28;20090;-84
2021/12/02 10:33:57;;;;;;;7.30;2.20;;;3.00;99.90;;;;;;4956525;28;20094;-84
2021/12/02 10:36:24;;;;;;;7.10;2.77;;;3.30;99.90;;;;;;4958442;28;20054;-84
2021/12/02 10:38:50;;;;;;;8.37;4.30;;;3.20;99.90;;;;;;4956961;28;20047;-85
2021/12/02 10:41:24;;;;;;;6.07;2.07;;;3.20;99.90;;;;;;4958174;28;20043;-85
2021/12/02 10:44:04;;;;;;;;;;;3.20;99.90;;;;;;4958383;28;20146;-85
2021/12/02 10:46:31;;;;;;;6.53;2.00;;;3.30;99.90;;;;;;4961665;28;19934;-86
2021/12/02 10:49:12;;;;;;;6.90;1.90;;;3.40;99.90;;;;;;4960828;28;20042;-88
2021/12/02 10:51:40;;;;;;;6.57;1.90;;;3.50;99.90;;;;;;4957953;28;20046;-88
2021/12/02 10:54:26;;;;;;;7.07;2.00;;;3.60;99.90;;;;;;4961565;28;20055;-87
2021/12/02 10:56:55;;;;;;;7.07;1.80;;;3.90;99.90;;;;;;4958764;28;20042;-86
2021/12/02 10:59:31;;;;;;;6.33;1.80;;;3.80;99.90;;;;;;4954486;29;20055;-87
2021/12/02 11:02:16;;;;;;;6.33;1.80;;;4.20;99.90;;;;;;4954244;29;20385;-85
2021/12/02 11:04:44;;;;;;;7.40;1.77;;;4.30;99.90;;;;;;4953538;29;20040;-85
2021/12/02 11:07:13;;;;;;;5.57;1.63;;;4.20;99.90;;;;;;4952193;29;20051;-85
2021/12/02 11:09:40;;;;;;;4.77;1.63;;;4.00;99.90;;;;;;4953455;29;20044;-85
2021/12/02 11:12:19;;;;;;;5.33;1.70;;;3.80;99.90;;;;;;4953851;29;20511;-85
2021/12/02 11:15:06;;;;;;;5.73;1.97;;;3.80;99.90;;;;;;4951581;29;20488;-86
2021/12/02 11:17:34;;;;;;;9.93;2.67;;;3.60;99.90;;;;;;4985689;28;20090;-85
2021/12/02 11:20:05;;;;;;;7.80;2.10;;;4.00;99.90;;;;;;4953633;29;20523;-85
2021/12/02 11:22:31;;;;;;;6.60;2.20;;;3.30;99.90;;;;;;4952469;29;20058;-85
2021/12/02 11:24:58;;;;;;;7.30;2.07;;;3.10;99.90;;;;;;4953653;29;20039;-86
2021/12/02 11:27:34;;;;;;;6.57;2.33;;;4.00;99.90;;;;;;4954607;29;20117;-87
2021/12/02 11:30:13;;;;;;;9.77;2.97;;;3.00;99.90;;;;;;4953019;29;20043;-86
2021/12/02 11:32:48;;;;;;;6.40;2.50;;;2.90;99.90;;;;;;4954284;29;20507;-88
2021/12/02 11:35:24;;;;;;;10.10;2.90;;;2.80;99.90;;;;;;4952974;29;20051;-87
2021/12/02 11:38:03;;;;;;;8.87;2.40;;;2.60;99.90;;;;;;4953920;29;20101;-86
2021/12/02 11:40:40;;;;;;;5.60;1.97;;;2.50;99.90;;;;;;4955242;29;20551;-86
2021/12/02 11:43:39;;;;;;;6.10;2.10;;;2.80;99.90;;;;;;4954367;29;20151;-86
2021/12/02 11:46:08;;;;;;;6.20;2.07;;;2.60;99.90;;;;;;4954680;29;20047;-87
2021/12/02 11:48:41;;;;;;;5.47;1.70;;;3.50;99.90;;;;;;4954147;29;20047;-87
2021/12/02 11:51:13;;;;;;;3.33;1.50;;;2.40;99.90;;;;;;4951373;29;20047;-86
2021/12/02 11:53:39;;;;;;;3.60;1.40;;;3.50;99.90;;;;;;4953102;29;20039;-86
2021/12/02 11:56:08;;;;;;;5.70;1.40;;;2.50;99.90;;;;;;4951801;28;20054;-86
2021/12/02 11:58:41;;;;;;;4.63;1.50;;;2.40;99.90;;;;;;4953052;29;20483;-86
2021/12/02 12:01:12;;;;;;;3.50;1.40;;;3.40;99.90;;;;;;4954648;29;20055;-87
2021/12/02 12:03:42;;;;;;;5.73;1.50;;;2.30;99.90;;;;;;4949917;29;20044;-87
2021/12/02 12:06:13;;;;;;;3.80;1.57;;;2.40;99.90;;;;;;4954441;29;20062;-87
2021/12/02 12:08:41;;;;;;;5.57;1.67;;;2.30;99.90;;;;;;4954520;29;20050;-87
2021/12/02 12:11:25;;;;;;;5.37;1.80;;;2.90;99.90;;;;;;4952208;29;20047;-87
2021/12/02 12:14:08;;;;;;;6.18;1.80;;;2.20;99.90;;;;;;4950876;29;20177;-88
2021/12/02 12:16:38;;;;;;;6.55;1.60;;;3.10;99.90;;;;;;4951170;29;20043;-87
2021/12/02 12:19:38;;;;;;;6.57;1.40;;;2.40;99.90;;;;;;4951736;29;20142;-87
2021/12/02 12:22:11;;;;;;;4.43;1.40;;;2.50;99.90;;;;;;4908388;29;20479;-86
2021/12/02 12:24:55;;;;;;;5.60;1.40;;;2.30;99.90;;;;;;4950004;29;20086;-87
2021/12/02 12:27:39;;;;;;;5.25;1.35;;;3.30;99.90;;;;;;4952477;29;20043;-89
2021/12/02 12:30:22;;;;;;;4.23;1.17;;;2.30;99.90;;;;;;4952474;29;20075;-86
2021/12/02 12:37:59;;;;;;;4.63;1.40;;;2.30;99.90;;;;;;4952391;29;20090;-85
2021/12/02 12:40:37;;;;;;;1.40;0.80;;;2.30;99.90;;;;;;4957002;28;20055;-86
2021/12/02 12:43:02;;;;;;;1.50;0.90;;;2.30;99.90;;;;;;4955318;29;20039;-86
2021/12/02 12:45:33;;;;;;;5.97;1.30;;;2.10;99.90;;;;;;4936666;29;20074;-86
2021/12/02 12:48:03;;;;;;;2.30;1.00;;;2.10;99.90;;;;;;4939019;29;20519;-86
2021/12/02 12:50:37;;;;;;;2.50;0.97;;;2.20;99.90;;;;;;4939150;29;20500;-85
2021/12/02 12:53:03;;;;;;;3.03;0.98;;;2.10;99.90;;;;;;4936712;29;20052;-86
2021/12/02 12:55:38;;;;;;;3.53;1.07;;;1.80;99.90;;;;;;4954923;29;20066;-88
2021/12/02 12:58:14;;;;;;;2.57;0.90;;;2.10;99.90;;;;;;4946479;29;20380;-85
2021/12/02 13:00:57;;;;;;;2.97;0.97;;;2.10;99.90;;;;;;4945362;29;20054;-87
2021/12/02 13:03:32;;;;;;;1.93;0.77;;;2.90;99.90;;;;;;4954391;28;20058;-86
2021/12/02 13:06:07;;;;;;;3.07;1.20;;;2.30;99.90;;;;;;4952712;29;20049;-86
2021/12/02 13:08:43;;;;;;;6.33;1.80;;;2.00;99.90;;;;;;4954868;28;20047;-87
2021/12/02 13:11:13;;;;;;;6.40;1.90;;;2.10;99.90;;;;;;4956771;29;20050;-87
2021/12/02 13:13:40;;;;;;;7.30;2.40;;;2.70;99.90;;;;;;4958009;28;20043;-87
2021/12/02 13:16:16;;;;;;;8.00;2.90;;;2.90;99.90;;;;;;4975451;28;20050;-87
2021/12/02 13:18:53;;;;;;;8.00;2.70;;;2.00;99.90;;;;;;4963055;29;20089;-87
2021/12/02 13:21:21;;;;;;;8.50;3.30;;;2.00;99.90;;;;;;4956505;29;20126;-87
2021/12/02 13:23:59;;;;;;;7.50;2.90;;;1.90;99.90;;;;;;4956156;29;20055;-87
2021/12/02 13:26:30;;;;;;;8.30;3.10;;;1.90;99.90;;;;;;4958117;28;20047;-87